createdAt,value
2019-03-30T00:02:22.394Z,6.77
2019-03-30T00:04:48.542Z,7.90
2019-03-30T00:07:14.766Z,8.30
2019-03-30T00:09:40.906Z,8.27
2019-03-30T00:12:07.157Z,8.83
2019-03-30T00:14:33.443Z,8.70
2019-03-30T00:16:59.550Z,8.00
2019-03-30T00:19:34.789Z,7.60
2019-03-30T00:21:53.925Z,8.47
2019-03-30T00:24:20.787Z,7.20
2019-03-30T00:26:47.515Z,8.23
2019-03-30T00:29:14.650Z,7.53
2019-03-30T00:31:41.492Z,6.90
2019-03-30T00:34:08.329Z,7.37
2019-03-30T00:36:34.993Z,7.53
2019-03-30T00:39:02.082Z,7.33
2019-03-30T00:41:28.908Z,7.67
2019-03-30T00:43:55.761Z,8.40
2019-03-30T00:46:22.554Z,8.77
2019-03-30T00:48:49.270Z,8.43
2019-03-30T00:51:16.016Z,8.83
2019-03-30T00:53:42.873Z,8.87
2019-03-30T00:56:09.583Z,8.13
2019-03-30T00:58:36.070Z,8.83
2019-03-30T01:01:03.037Z,7.73
2019-03-30T01:03:30.670Z,8.00
2019-03-30T01:05:58.344Z,8.73
2019-03-30T01:08:25.240Z,9.00
2019-03-30T01:10:51.960Z,8.77
2019-03-30T01:13:18.865Z,7.57
2019-03-30T01:15:45.669Z,7.93
2019-03-30T01:18:12.031Z,7.57
2019-03-30T01:20:38.261Z,8.33
2019-03-30T01:23:04.589Z,8.93
2019-03-30T01:25:30.843Z,8.20
2019-03-30T01:27:56.981Z,7.97
2019-03-30T01:30:23.796Z,8.37
2019-03-30T01:32:50.157Z,9.03
2019-03-30T01:35:16.642Z,8.37
2019-03-30T01:37:42.979Z,8.60
2019-03-30T01:40:09.309Z,7.73
2019-03-30T01:42:35.595Z,8.57
2019-03-30T01:45:03.355Z,9.30
2019-03-30T01:47:29.714Z,9.47
2019-03-30T01:49:55.968Z,8.83
2019-03-30T01:52:22.216Z,8.83
2019-03-30T01:54:48.462Z,8.87
2019-03-30T01:57:14.691Z,8.47
2019-03-30T01:59:40.903Z,7.63
2019-03-30T02:02:07.066Z,8.93
2019-03-30T02:04:33.293Z,8.67
2019-03-30T02:06:59.507Z,9.23
2019-03-30T02:09:25.763Z,9.13
2019-03-30T02:11:51.902Z,10.20
2019-03-30T02:14:18.135Z,8.90
2019-03-30T02:16:44.312Z,9.00
2019-03-30T02:19:10.731Z,10.63
2019-03-30T02:21:36.853Z,11.23
2019-03-30T02:24:03.217Z,11.03
2019-03-30T02:26:29.477Z,9.90
2019-03-30T02:28:55.724Z,10.07
2019-03-30T02:31:21.944Z,9.03
2019-03-30T02:33:48.191Z,9.73
2019-03-30T02:36:14.647Z,8.63
2019-03-30T02:38:40.967Z,8.47
2019-03-30T02:41:07.234Z,9.57
2019-03-30T02:43:33.545Z,8.17
2019-03-30T02:45:59.891Z,8.17
2019-03-30T02:48:26.127Z,7.67
2019-03-30T02:50:52.465Z,8.43
2019-03-30T02:53:18.593Z,9.03
2019-03-30T02:55:44.753Z,8.17
2019-03-30T02:58:10.961Z,9.57
2019-03-30T03:00:37.326Z,8.63
2019-03-30T03:03:03.539Z,8.23
2019-03-30T03:05:29.785Z,8.37
2019-03-30T03:07:56.009Z,8.67
2019-03-30T03:10:22.646Z,8.37
2019-03-30T03:12:48.920Z,7.53
2019-03-30T03:15:15.341Z,10.87
2019-03-30T03:17:41.664Z,10.47
2019-03-30T03:20:08.086Z,10.37
2019-03-30T03:22:34.326Z,10.87
2019-03-30T03:25:00.674Z,10.83
2019-03-30T03:27:26.894Z,11.83
2019-03-30T03:29:53.023Z,12.20
2019-03-30T03:32:19.282Z,11.53
2019-03-30T03:34:45.565Z,11.50
2019-03-30T03:37:11.879Z,10.30
2019-03-30T03:39:38.042Z,9.97
2019-03-30T03:42:04.679Z,10.77
2019-03-30T03:44:30.986Z,10.33
2019-03-30T03:46:57.326Z,10.40
2019-03-30T03:49:23.494Z,11.23
2019-03-30T03:51:49.887Z,10.17
2019-03-30T03:54:16.279Z,9.17
2019-03-30T03:56:45.643Z,10.03
2019-03-30T03:59:12.393Z,10.10
2019-03-30T04:01:38.624Z,10.67
2019-03-30T04:04:06.827Z,11.33
2019-03-30T04:06:33.183Z,10.43
2019-03-30T04:09:01.649Z,11.17
2019-03-30T04:11:30.000Z,11.27
2019-03-30T04:13:58.635Z,11.13
2019-03-30T04:16:24.936Z,11.77
2019-03-30T04:18:51.076Z,12.13
2019-03-30T04:21:17.329Z,10.23
2019-03-30T04:23:43.567Z,10.40
2019-03-30T04:26:09.871Z,11.73
2019-03-30T04:28:36.213Z,10.73
2019-03-30T04:31:02.337Z,11.23
2019-03-30T04:33:28.582Z,11.27
2019-03-30T04:35:54.816Z,11.50
2019-03-30T04:38:21.871Z,10.57
2019-03-30T04:40:48.769Z,9.00
2019-03-30T04:43:18.341Z,9.57
2019-03-30T04:45:45.160Z,9.53
2019-03-30T04:48:11.888Z,10.03
2019-03-30T04:50:39.292Z,9.57
2019-03-30T04:53:07.120Z,9.73
2019-03-30T04:55:34.452Z,10.60
2019-03-30T04:58:04.136Z,9.93
2019-03-30T05:00:31.122Z,9.80
2019-03-30T05:02:58.228Z,10.30
2019-03-30T05:05:25.088Z,9.17
2019-03-30T05:07:51.980Z,9.87
2019-03-30T05:10:18.709Z,10.27
2019-03-30T05:12:45.257Z,10.17
2019-03-30T05:15:11.929Z,9.47
2019-03-30T05:17:47.493Z,9.57
2019-03-30T05:20:10.118Z,9.80
2019-03-30T05:22:36.881Z,9.90
2019-03-30T05:25:03.915Z,13.00
2019-03-30T05:27:30.107Z,10.73
2019-03-30T05:29:56.400Z,11.10
2019-03-30T05:32:22.910Z,10.67
2019-03-30T05:34:49.034Z,10.97
2019-03-30T05:37:15.198Z,11.00
2019-03-30T05:39:41.458Z,13.70
2019-03-30T05:42:07.615Z,13.73
2019-03-30T05:44:33.922Z,13.60
2019-03-30T05:47:00.038Z,13.03
2019-03-30T05:49:26.301Z,12.63
2019-03-30T05:51:52.495Z,11.23
2019-03-30T05:54:18.751Z,10.50
2019-03-30T05:56:44.954Z,10.90
2019-03-30T05:59:11.147Z,11.30
2019-03-30T06:01:37.303Z,11.10
2019-03-30T06:04:03.660Z,10.20
2019-03-30T06:06:29.892Z,10.77
2019-03-30T06:08:56.544Z,11.13
2019-03-30T06:11:23.281Z,12.10
2019-03-30T06:13:49.943Z,11.70
2019-03-30T06:16:16.753Z,11.13
2019-03-30T06:18:43.420Z,12.47
2019-03-30T06:21:13.014Z,17.47
2019-03-30T06:23:39.689Z,20.53
2019-03-30T06:26:06.585Z,20.77
2019-03-30T06:28:33.349Z,16.80
2019-03-30T06:31:00.061Z,14.83
2019-03-30T06:33:26.722Z,12.90
2019-03-30T06:35:52.978Z,12.17
2019-03-30T06:38:19.570Z,11.90
2019-03-30T06:40:46.451Z,10.50
2019-03-30T06:43:13.268Z,11.90
2019-03-30T06:45:40.115Z,11.30
2019-03-30T06:48:06.801Z,10.90
2019-03-30T06:50:33.397Z,10.80
2019-03-30T06:53:00.040Z,10.97
2019-03-30T06:55:27.285Z,10.87
2019-03-30T06:57:54.383Z,10.30
2019-03-30T07:00:32.632Z,9.10
2019-03-30T07:03:02.166Z,9.40
2019-03-30T07:05:29.357Z,8.77
2019-03-30T07:07:56.665Z,9.57
2019-03-30T07:10:22.988Z,8.67
2019-03-30T07:12:50.994Z,8.03
2019-03-30T07:15:17.255Z,8.87
2019-03-30T07:17:45.407Z,9.30
2019-03-30T07:20:21.119Z,9.63
2019-03-30T07:22:47.334Z,9.43
2019-03-30T07:25:13.494Z,9.17
2019-03-30T07:27:39.794Z,14.90
2019-03-30T07:30:07.834Z,14.10
2019-03-30T07:32:33.948Z,14.27
2019-03-30T07:35:00.402Z,18.17
2019-03-30T07:37:27.177Z,19.60
2019-03-30T07:39:53.375Z,23.03
2019-03-30T07:42:19.496Z,18.83
2019-03-30T07:44:45.865Z,20.77
2019-03-30T07:47:12.077Z,21.37
2019-03-30T07:49:38.293Z,21.65
2019-03-30T07:52:04.523Z,18.85
2019-03-30T07:54:30.794Z,16.55
2019-03-30T07:57:04.957Z,18.00
2019-03-30T07:59:25.140Z,20.55
2019-03-30T08:01:51.472Z,20.92
2019-03-30T08:04:17.829Z,19.82
2019-03-30T08:06:44.182Z,18.80
2019-03-30T08:09:10.414Z,16.77
2019-03-30T08:11:36.784Z,17.73
2019-03-30T08:14:03.305Z,18.32
2019-03-30T08:16:29.425Z,16.73
2019-03-30T08:18:55.698Z,17.10
2019-03-30T08:21:21.917Z,18.00
2019-03-30T08:23:48.136Z,15.32
2019-03-30T08:26:14.392Z,14.60
2019-03-30T08:28:40.632Z,15.30
2019-03-30T08:31:07.196Z,14.45
2019-03-30T08:33:33.355Z,15.40
2019-03-30T08:35:59.598Z,13.03
2019-03-30T08:38:25.759Z,12.47
2019-03-30T08:40:52.025Z,14.20
2019-03-30T08:43:18.258Z,15.60
2019-03-30T08:45:44.369Z,13.65
2019-03-30T08:48:10.518Z,15.45
2019-03-30T08:50:36.837Z,16.15
2019-03-30T08:53:03.068Z,16.02
2019-03-30T08:55:29.485Z,15.28
2019-03-30T08:57:55.743Z,14.83
2019-03-30T09:00:36.167Z,13.63
2019-03-30T09:03:02.489Z,15.10
2019-03-30T09:05:28.630Z,12.82
2019-03-30T09:07:54.741Z,14.07
2019-03-30T09:10:21.026Z,16.50
2019-03-30T09:12:47.247Z,17.32
2019-03-30T09:15:13.574Z,15.28
2019-03-30T09:17:39.809Z,14.87
2019-03-30T09:20:07.351Z,14.68
2019-03-30T09:22:33.802Z,12.93
2019-03-30T09:24:59.959Z,10.25
2019-03-30T09:27:26.576Z,11.68
2019-03-30T09:29:52.945Z,10.10
2019-03-30T09:32:19.317Z,9.20
2019-03-30T09:34:45.715Z,5.90
2019-03-30T09:37:11.908Z,6.15
2019-03-30T09:39:38.273Z,7.30
2019-03-30T09:42:04.508Z,6.42
2019-03-30T09:44:30.786Z,10.60
2019-03-30T09:46:57.192Z,7.67
2019-03-30T09:49:23.466Z,6.90
2019-03-30T09:51:49.639Z,5.15
2019-03-30T09:54:23.586Z,8.43
2019-03-30T09:56:43.900Z,5.65
2019-03-30T09:59:10.670Z,4.92
2019-03-30T10:01:37.991Z,8.78
2019-03-30T10:04:04.720Z,5.15
2019-03-30T10:06:34.543Z,7.37
2019-03-30T10:08:59.993Z,7.60
2019-03-30T10:11:27.434Z,6.72
2019-03-30T10:13:54.658Z,5.70
2019-03-30T10:16:21.496Z,4.83
2019-03-30T10:18:48.888Z,5.65
2019-03-30T10:21:15.583Z,8.43
2019-03-30T10:23:43.406Z,8.30
2019-03-30T10:26:10.233Z,6.55
2019-03-30T10:28:36.990Z,5.28
2019-03-30T10:31:04.281Z,4.40
2019-03-30T10:33:30.971Z,5.40
2019-03-30T10:35:57.523Z,5.95
2019-03-30T10:38:24.243Z,5.30
2019-03-30T10:40:50.489Z,6.05
2019-03-30T10:43:16.727Z,6.62
2019-03-30T10:45:42.994Z,5.75
2019-03-30T10:48:09.219Z,7.87
2019-03-30T10:50:35.497Z,6.90
2019-03-30T10:53:01.732Z,5.05
2019-03-30T10:55:28.061Z,7.90
2019-03-30T10:57:54.290Z,8.48
2019-03-30T11:00:34.823Z,9.28
2019-03-30T11:03:01.053Z,6.90
2019-03-30T11:05:27.226Z,6.78
2019-03-30T11:07:53.505Z,3.98
2019-03-30T11:10:24.766Z,6.20
2019-03-30T11:12:51.005Z,5.50
2019-03-30T11:15:17.335Z,7.53
2019-03-30T11:17:44.452Z,11.30
2019-03-30T11:20:10.885Z,11.10
2019-03-30T11:22:37.052Z,9.40
2019-03-30T11:25:07.858Z,12.65
2019-03-30T11:27:32.111Z,12.43
2019-03-30T11:29:58.377Z,7.87
2019-03-30T11:32:27.721Z,10.72
2019-03-30T11:35:01.308Z,10.10
2019-03-30T11:37:27.667Z,11.50
2019-03-30T11:39:53.932Z,11.80
2019-03-30T11:42:20.293Z,9.03
2019-03-30T11:44:46.531Z,10.00
2019-03-30T11:47:12.656Z,10.48
2019-03-30T11:49:43.159Z,11.50
2019-03-30T11:52:09.576Z,6.30
2019-03-30T11:54:35.719Z,7.08
2019-03-30T11:57:01.850Z,9.78
2019-03-30T11:59:36.878Z,12.93
2019-03-30T12:02:03.197Z,11.53
2019-03-30T12:04:36.638Z,11.05
2019-03-30T12:07:03.087Z,9.75
2019-03-30T12:09:29.209Z,9.25
2019-03-30T12:11:55.574Z,8.55
2019-03-30T12:14:21.795Z,7.05
2019-03-30T12:16:48.025Z,6.55
2019-03-30T12:19:50.944Z,9.60
2019-03-30T12:21:51.667Z,7.87
2019-03-30T12:24:17.877Z,8.70
2019-03-30T12:26:44.114Z,9.28
2019-03-30T12:29:15.079Z,11.11
2019-03-30T12:31:46.765Z,9.13
2019-03-30T12:34:16.135Z,7.50
2019-03-30T12:36:42.424Z,6.62
2019-03-30T12:39:11.471Z,8.43
2019-03-30T12:41:45.128Z,5.00
2019-03-30T12:44:16.209Z,8.33
2019-03-30T12:46:44.064Z,8.03
2019-03-30T12:49:11.008Z,9.68
2019-03-30T12:51:37.327Z,9.37
2019-03-30T12:54:03.877Z,8.80
2019-03-30T12:56:33.020Z,7.65
2019-03-30T12:59:02.542Z,7.72
2019-03-30T13:01:28.260Z,8.10
2019-03-30T13:03:56.472Z,8.45
2019-03-30T13:06:22.781Z,12.58
2019-03-30T13:08:49.021Z,12.88
2019-03-30T13:11:15.298Z,13.43
2019-03-30T13:13:41.515Z,12.15
2019-03-30T13:16:07.988Z,9.43
2019-03-30T13:18:34.451Z,13.77
2019-03-30T13:21:04.094Z,13.90
2019-03-30T13:23:30.408Z,13.58
2019-03-30T13:26:03.710Z,13.90
2019-03-30T13:28:31.193Z,11.95
2019-03-30T13:30:59.915Z,10.00
2019-03-30T13:33:26.271Z,11.65
2019-03-30T13:35:52.442Z,10.15
2019-03-30T13:38:20.830Z,11.03
2019-03-30T13:40:47.517Z,10.72
2019-03-30T13:43:14.212Z,11.10
2019-03-30T13:45:40.966Z,9.90
2019-03-30T13:48:07.240Z,9.93
2019-03-30T13:50:35.514Z,11.60
2019-03-30T13:53:09.212Z,9.03
2019-03-30T13:55:34.806Z,10.82
2019-03-30T13:58:03.507Z,9.65
2019-03-30T14:00:32.556Z,7.97
2019-03-30T14:03:02.807Z,8.25
2019-03-30T14:05:32.136Z,7.12
2019-03-30T14:08:05.329Z,8.15
2019-03-30T14:10:31.895Z,8.68
2019-03-30T14:12:58.363Z,10.40
2019-03-30T14:15:25.481Z,8.05
2019-03-30T14:17:51.778Z,12.05
2019-03-30T14:20:17.946Z,12.50
2019-03-30T14:22:44.417Z,9.80
2019-03-30T14:25:10.915Z,21.12
2019-03-30T14:27:39.547Z,24.37
2019-03-30T14:30:09.227Z,16.77
2019-03-30T14:32:35.660Z,12.10
2019-03-30T14:35:02.019Z,11.25
2019-03-30T14:37:29.320Z,11.85
2019-03-30T14:39:56.338Z,11.00
2019-03-30T14:42:22.579Z,9.85
2019-03-30T14:44:48.926Z,10.53
2019-03-30T14:47:15.159Z,9.83
2019-03-30T14:49:41.374Z,11.38
2019-03-30T14:52:09.791Z,9.73
2019-03-30T14:54:36.724Z,9.60
2019-03-30T14:57:02.938Z,8.80
2019-03-30T14:59:29.490Z,8.93
2019-03-30T15:01:55.729Z,7.15
2019-03-30T15:04:21.962Z,7.67
2019-03-30T15:06:48.268Z,11.22
2019-03-30T15:09:14.529Z,12.25
2019-03-30T15:11:40.751Z,10.65
2019-03-30T15:14:06.986Z,10.45
2019-03-30T15:16:33.203Z,10.80
2019-03-30T15:18:59.359Z,9.15
2019-03-30T15:21:25.524Z,10.38
2019-03-30T15:23:51.760Z,11.10
2019-03-30T15:26:21.824Z,10.40
2019-03-30T15:28:46.545Z,9.20
2019-03-30T15:31:12.979Z,9.60
2019-03-30T15:33:41.908Z,8.18
2019-03-30T15:36:11.389Z,8.83
2019-03-30T15:38:41.439Z,9.35
2019-03-30T15:41:19.296Z,9.00
2019-03-30T15:43:47.427Z,7.15
2019-03-30T15:46:14.424Z,6.78
2019-03-30T15:48:46.381Z,8.90
2019-03-30T15:53:59.927Z,7.33
2019-03-30T15:56:32.994Z,9.48
2019-03-30T15:58:59.292Z,9.73
2019-03-30T16:01:25.718Z,10.28
2019-03-30T16:03:56.332Z,14.28
2019-03-30T16:06:30.414Z,12.88
2019-03-30T16:08:54.154Z,12.20
2019-03-30T16:11:20.382Z,13.98
2019-03-30T16:13:46.773Z,13.72
2019-03-30T16:16:13.106Z,12.33
2019-03-30T16:18:39.597Z,12.50
2019-03-30T16:21:05.927Z,11.28
2019-03-30T16:23:35.286Z,10.13
2019-03-30T16:26:40.692Z,8.98
2019-03-30T16:29:00.043Z,10.98
2019-03-30T16:31:27.594Z,12.53
2019-03-30T16:33:53.830Z,13.18
2019-03-30T16:36:20.169Z,11.85
2019-03-30T16:38:49.587Z,15.48
2019-03-30T16:41:20.720Z,17.60
2019-03-30T16:43:48.925Z,18.25
2019-03-30T16:46:15.996Z,19.42
2019-03-30T16:48:45.064Z,15.95
2019-03-30T16:54:07.301Z,11.90
2019-03-30T16:56:33.518Z,13.62
2019-03-30T16:59:03.734Z,12.47
2019-03-30T17:01:34.050Z,10.85
2019-03-30T17:04:00.377Z,8.98
2019-03-30T17:06:29.092Z,9.90
2019-03-30T17:08:55.320Z,10.38
2019-03-30T17:11:21.742Z,11.05
2019-03-30T17:13:52.566Z,9.48
2019-03-30T17:16:19.741Z,10.65
2019-03-30T17:18:46.212Z,9.68
2019-03-30T17:21:12.350Z,8.65
2019-03-30T17:23:39.184Z,7.47
2019-03-30T17:26:10.508Z,7.72
2019-03-30T17:28:37.174Z,7.65
2019-03-30T17:31:07.252Z,7.05
2019-03-30T17:33:35.836Z,7.03
2019-03-30T17:36:02.406Z,6.55
2019-03-30T17:38:30.685Z,5.60
2019-03-30T17:40:58.997Z,6.15
2019-03-30T17:43:31.331Z,5.55
2019-03-30T17:45:57.507Z,5.60
2019-03-30T17:48:27.071Z,7.05
2019-03-30T17:50:53.306Z,6.83
2019-03-30T17:53:19.721Z,6.75
2019-03-30T17:55:46.023Z,6.37
2019-03-30T17:58:13.602Z,8.20
2019-03-30T18:00:40.023Z,8.70
2019-03-30T18:03:06.292Z,7.45
2019-03-30T18:05:33.504Z,7.72
2019-03-30T18:08:01.723Z,7.10
2019-03-30T18:10:28.085Z,7.22
2019-03-30T18:12:54.719Z,7.65
2019-03-30T18:15:21.132Z,8.50
2019-03-30T18:17:47.369Z,8.10
2019-03-30T18:20:13.714Z,8.50
2019-03-30T18:22:39.955Z,7.60
2019-03-30T18:25:06.624Z,7.70
2019-03-30T18:27:32.754Z,9.95
2019-03-30T18:29:58.982Z,9.48
2019-03-30T18:32:25.192Z,10.38
2019-03-30T18:34:51.386Z,9.48
2019-03-30T18:37:17.965Z,9.80
2019-03-30T18:39:44.586Z,8.90
2019-03-30T18:42:10.977Z,8.20
2019-03-30T18:44:37.187Z,8.43
2019-03-30T18:47:03.374Z,7.03
2019-03-30T18:49:29.695Z,7.53
2019-03-30T18:51:56.625Z,6.87
2019-03-30T18:54:24.123Z,6.58
2019-03-30T18:56:51.005Z,6.62
2019-03-30T18:59:17.938Z,6.85
2019-03-30T19:01:44.614Z,6.08
2019-03-30T19:04:11.781Z,5.50
2019-03-30T19:06:39.186Z,5.42
2019-03-30T19:09:09.440Z,5.00
2019-03-30T19:11:41.435Z,5.08
2019-03-30T19:14:07.989Z,4.55
2019-03-30T19:16:43.748Z,5.40
2019-03-30T19:19:13.849Z,5.76
2019-03-30T19:21:43.295Z,5.25
2019-03-30T19:24:09.997Z,5.35
2019-03-30T19:26:36.326Z,5.47
2019-03-30T19:29:06.074Z,6.00
2019-03-30T19:31:34.609Z,6.03
2019-03-30T19:34:01.133Z,5.73
2019-03-30T19:36:30.470Z,6.43
2019-03-30T19:38:56.683Z,6.25
2019-03-30T19:41:23.754Z,6.47
2019-03-30T19:43:55.798Z,5.90
2019-03-30T19:46:26.508Z,6.33
2019-03-30T19:48:51.517Z,5.93
2019-03-30T19:51:23.176Z,5.50
2019-03-30T19:53:49.518Z,5.33
2019-03-30T19:56:16.090Z,5.30
2019-03-30T19:58:42.994Z,5.53
2019-03-30T20:01:09.563Z,5.10
2019-03-30T20:03:35.787Z,4.57
2019-03-30T20:06:04.328Z,5.03
2019-03-30T20:08:31.355Z,4.87
2019-03-30T20:10:57.554Z,4.97
2019-03-30T20:13:23.753Z,4.70
2019-03-30T20:15:50.348Z,4.60
2019-03-30T20:18:16.801Z,5.47
2019-03-30T20:20:43.089Z,5.90
2019-03-30T20:23:09.447Z,6.83
2019-03-30T20:25:39.278Z,6.50
2019-03-30T20:28:05.785Z,6.33
2019-03-30T20:30:32.233Z,6.67
2019-03-30T20:32:58.567Z,7.63
2019-03-30T20:35:24.678Z,7.30
2019-03-30T20:37:51.515Z,7.10
2019-03-30T20:40:17.811Z,7.33
2019-03-30T20:42:44.124Z,7.03
2019-03-30T20:45:13.633Z,7.60
2019-03-30T20:47:40.335Z,8.33
2019-03-30T20:50:06.850Z,7.47
2019-03-30T20:52:33.074Z,7.93
2019-03-30T20:54:59.227Z,7.63
2019-03-30T20:57:25.361Z,8.77
2019-03-30T20:59:51.744Z,8.93
2019-03-30T21:02:17.912Z,8.80
2019-03-30T21:04:44.250Z,8.70
2019-03-30T21:07:10.466Z,8.00
2019-03-30T21:09:37.016Z,7.47
2019-03-30T21:12:03.394Z,7.33
2019-03-30T21:14:31.798Z,6.87
2019-03-30T21:16:58.154Z,6.70
2019-03-30T21:19:24.398Z,7.10
2019-03-30T21:21:50.760Z,8.27
2019-03-30T21:24:17.269Z,8.90
2019-03-30T21:26:43.692Z,9.53
2019-03-30T21:29:10.418Z,9.57
2019-03-30T21:31:36.796Z,9.90
2019-03-30T21:34:03.370Z,9.80
2019-03-30T21:36:29.636Z,10.03
2019-03-30T21:38:55.918Z,9.07
2019-03-30T21:41:22.197Z,8.77
2019-03-30T21:43:48.663Z,9.17
2019-03-30T21:46:15.016Z,9.20
2019-03-30T21:48:41.346Z,8.17
2019-03-30T21:51:07.532Z,8.57
2019-03-30T21:53:34.123Z,8.10
2019-03-30T21:56:00.364Z,8.10
2019-03-30T21:58:26.864Z,7.60
2019-03-30T22:00:53.455Z,7.97
2019-03-30T22:03:19.694Z,7.53
2019-03-30T22:05:46.247Z,8.07
2019-03-30T22:08:12.536Z,7.80
2019-03-30T22:10:38.912Z,8.10
2019-03-30T22:13:05.223Z,7.87
2019-03-30T22:15:31.388Z,7.80
2019-03-30T22:17:57.650Z,6.97
2019-03-30T22:20:24.383Z,6.60
2019-03-30T22:22:50.875Z,6.33
2019-03-30T22:25:17.264Z,7.50
2019-03-30T22:27:43.929Z,7.27
2019-03-30T22:30:24.056Z,8.10
2019-03-30T22:32:38.927Z,8.70
2019-03-30T22:35:05.583Z,9.17
2019-03-30T22:37:31.998Z,8.83
2019-03-30T22:39:59.083Z,8.33
2019-03-30T22:42:25.652Z,8.90
2019-03-30T22:44:52.245Z,8.33
2019-03-30T22:47:18.871Z,7.27
2019-03-30T22:49:48.534Z,6.97
2019-03-30T22:52:16.291Z,7.50
2019-03-30T22:54:42.694Z,8.00
2019-03-30T22:57:08.913Z,8.20
2019-03-30T22:59:35.662Z,8.10
2019-03-30T23:02:06.654Z,8.27
2019-03-30T23:04:33.668Z,7.35
2019-03-30T23:07:03.624Z,7.20
2019-03-30T23:09:33.213Z,7.47
2019-03-30T23:11:59.456Z,8.60
2019-03-30T23:14:28.015Z,10.03
2019-03-30T23:16:58.531Z,9.53
2019-03-30T23:19:27.961Z,9.70
2019-03-30T23:22:14.110Z,9.40
2019-03-30T23:24:41.336Z,8.63
2019-03-30T23:27:10.178Z,8.93
2019-03-30T23:29:42.034Z,8.07
2019-03-30T23:32:13.707Z,9.13
2019-03-30T23:34:41.121Z,8.20
2019-03-30T23:37:14.617Z,8.10
2019-03-30T23:39:43.355Z,7.60
2019-03-30T23:42:13.185Z,7.90
2019-03-30T23:44:39.402Z,8.17
2019-03-30T23:47:10.130Z,7.63
2019-03-30T23:49:37.146Z,8.37
2019-03-30T23:52:03.916Z,8.53
2019-03-30T23:54:39.042Z,7.77
2019-03-30T23:57:05.390Z,8.73
2019-03-30T23:59:34.363Z,8.57
